createdAt,value
2022-08-25T00:00:28.443Z,19.68
2022-08-25T00:01:28.411Z,19.67
2022-08-25T00:02:28.469Z,19.65
2022-08-25T00:03:28.408Z,19.64
2022-08-25T00:04:29.328Z,19.63
2022-08-25T00:05:28.999Z,19.63
2022-08-25T00:06:28.396Z,19.64
2022-08-25T00:07:28.266Z,19.63
2022-08-25T00:08:28.317Z,19.65
2022-08-25T00:09:28.245Z,19.64
2022-08-25T00:10:28.352Z,19.65
2022-08-25T00:11:28.216Z,19.67
2022-08-25T00:12:28.215Z,19.71
2022-08-25T00:13:28.195Z,19.70
2022-08-25T00:14:28.323Z,19.72
2022-08-25T00:15:28.185Z,19.75
2022-08-25T00:16:28.174Z,19.78
2022-08-25T00:17:28.155Z,19.78
2022-08-25T00:18:28.196Z,19.82
2022-08-25T00:19:28.228Z,19.83
2022-08-25T00:20:31.913Z,19.86
2022-08-25T00:21:28.110Z,19.89
2022-08-25T00:22:28.202Z,19.92
2022-08-25T00:23:28.082Z,19.95
2022-08-25T00:24:28.096Z,19.97
2022-08-25T00:25:28.042Z,20.01
2022-08-25T00:26:28.160Z,20.02
2022-08-25T00:27:28.036Z,20.05
2022-08-25T00:28:28.092Z,20.08
2022-08-25T00:29:28.031Z,20.10
2022-08-25T00:30:27.981Z,20.12
2022-08-25T00:31:38.364Z,20.18
2022-08-25T00:32:29.000Z,20.19
2022-08-25T00:33:27.971Z,20.22
2022-08-25T00:34:27.940Z,20.25
2022-08-25T00:35:27.929Z,20.26
2022-08-25T00:36:27.933Z,20.29
2022-08-25T00:37:27.931Z,20.29
2022-08-25T00:38:27.880Z,20.30
2022-08-25T00:39:27.879Z,20.32
2022-08-25T00:40:27.895Z,20.34
2022-08-25T00:41:27.864Z,20.34
2022-08-25T00:42:27.846Z,20.35
2022-08-25T00:43:27.828Z,20.37
2022-08-25T00:44:27.810Z,20.38
2022-08-25T00:45:27.803Z,20.37
2022-08-25T00:46:27.826Z,20.38
2022-08-25T00:47:27.803Z,20.37
2022-08-25T00:48:27.791Z,20.37
2022-08-25T00:49:27.755Z,20.35
2022-08-25T00:50:27.756Z,20.35
2022-08-25T00:51:27.732Z,20.35
2022-08-25T00:52:27.736Z,20.34
2022-08-25T00:53:27.716Z,20.32
2022-08-25T00:54:27.677Z,20.30
2022-08-25T00:55:27.672Z,20.30
2022-08-25T00:56:27.675Z,20.27
2022-08-25T00:57:34.819Z,20.27
2022-08-25T00:58:28.635Z,20.26
2022-08-25T00:59:27.653Z,20.23
2022-08-25T01:00:27.636Z,20.20
2022-08-25T01:01:27.670Z,20.20
2022-08-25T01:02:27.646Z,20.18
2022-08-25T01:03:31.618Z,20.15
2022-08-25T01:04:28.545Z,20.15
2022-08-25T01:05:27.575Z,20.12
2022-08-25T01:06:27.543Z,20.08
2022-08-25T01:07:27.525Z,20.10
2022-08-25T01:08:27.503Z,20.05
2022-08-25T01:09:27.514Z,20.07
2022-08-25T01:10:27.492Z,20.04
2022-08-25T01:11:27.476Z,20.04
2022-08-25T01:12:27.453Z,20.02
2022-08-25T01:13:27.455Z,20.04
2022-08-25T01:14:27.450Z,20.05
2022-08-25T01:15:27.523Z,20.04
2022-08-25T01:16:27.433Z,20.02
2022-08-25T01:17:27.460Z,20.04
2022-08-25T01:18:27.396Z,20.02
2022-08-25T01:19:27.413Z,20.02
2022-08-25T01:20:27.902Z,20.02
2022-08-25T01:21:27.378Z,20.04
2022-08-25T01:22:27.323Z,20.01
2022-08-25T01:23:27.320Z,20.02
2022-08-25T01:24:27.291Z,20.02
2022-08-25T01:25:27.330Z,20.02
2022-08-25T01:26:30.777Z,20.02
2022-08-25T01:27:27.318Z,20.02
2022-08-25T01:28:27.238Z,20.01
2022-08-25T01:29:27.244Z,20.00
2022-08-25T01:30:27.238Z,20.01
2022-08-25T01:31:27.296Z,19.98
2022-08-25T01:32:27.296Z,20.00
2022-08-25T01:33:27.197Z,20.00
2022-08-25T01:34:27.176Z,19.98
2022-08-25T01:35:27.148Z,19.98
2022-08-25T01:36:27.182Z,19.97
2022-08-25T01:37:27.149Z,19.95
2022-08-25T01:38:27.140Z,19.95
2022-08-25T01:39:27.143Z,19.95
2022-08-25T01:40:27.146Z,19.95
2022-08-25T01:41:27.141Z,19.95
2022-08-25T01:42:27.096Z,19.93
2022-08-25T01:43:27.093Z,19.95
2022-08-25T01:44:27.034Z,19.95
2022-08-25T01:45:27.123Z,19.95
2022-08-25T01:46:27.088Z,19.98
2022-08-25T01:47:27.043Z,19.98
2022-08-25T01:48:27.033Z,20.00
2022-08-25T01:49:27.033Z,20.01
2022-08-25T01:50:26.972Z,20.01
2022-08-25T01:51:26.963Z,20.04
2022-08-25T01:52:26.971Z,20.04
2022-08-25T01:53:26.933Z,20.04
2022-08-25T01:54:26.932Z,20.01
2022-08-25T01:55:26.909Z,20.02
2022-08-25T01:56:26.901Z,20.01
2022-08-25T01:57:26.911Z,20.01
2022-08-25T01:58:26.967Z,20.01
2022-08-25T01:59:26.859Z,20.02
2022-08-25T02:00:26.842Z,20.01
2022-08-25T02:01:26.885Z,20.02
2022-08-25T02:02:26.944Z,20.00
2022-08-25T02:03:26.819Z,20.00
2022-08-25T02:04:26.843Z,20.00
2022-08-25T02:05:26.774Z,20.01
2022-08-25T02:06:28.748Z,20.00
2022-08-25T02:07:26.790Z,19.97
2022-08-25T02:08:26.778Z,19.97
2022-08-25T02:09:26.730Z,19.98
2022-08-25T02:10:26.758Z,19.97
2022-08-25T02:11:26.708Z,19.97
2022-08-25T02:12:26.748Z,19.95
2022-08-25T02:13:31.631Z,19.95
2022-08-25T02:14:27.790Z,19.92
2022-08-25T02:15:26.658Z,19.92
2022-08-25T02:16:26.676Z,19.90
2022-08-25T02:17:26.677Z,19.89
2022-08-25T02:18:26.656Z,19.86
2022-08-25T02:19:26.616Z,19.85
2022-08-25T02:20:26.625Z,19.83
2022-08-25T02:21:26.576Z,19.80
2022-08-25T02:22:26.606Z,19.78
2022-08-25T02:23:26.548Z,19.74
2022-08-25T02:24:26.585Z,19.72
2022-08-25T02:25:26.551Z,19.70
2022-08-25T02:26:26.604Z,19.68
2022-08-25T02:27:26.496Z,19.65
2022-08-25T02:28:26.491Z,19.64
2022-08-25T02:29:26.503Z,19.61
2022-08-25T02:30:26.592Z,19.57
2022-08-25T02:31:26.451Z,19.57
2022-08-25T02:32:26.447Z,19.55
2022-08-25T02:33:26.433Z,19.53
2022-08-25T02:34:26.440Z,19.50
2022-08-25T02:35:26.408Z,19.47
2022-08-25T02:36:26.401Z,19.47
2022-08-25T02:37:26.381Z,19.45
2022-08-25T02:38:26.369Z,19.43
2022-08-25T02:39:26.372Z,19.42
2022-08-25T02:40:26.439Z,19.38
2022-08-25T02:41:31.232Z,19.37
2022-08-25T02:42:27.333Z,19.34
2022-08-25T02:43:26.305Z,19.31
2022-08-25T02:44:26.351Z,19.28
2022-08-25T02:45:26.277Z,19.27
2022-08-25T02:46:26.351Z,19.27
2022-08-25T02:47:26.830Z,19.24
2022-08-25T02:48:26.234Z,19.23
2022-08-25T02:49:26.257Z,19.19
2022-08-25T02:50:26.238Z,19.17
2022-08-25T02:51:26.198Z,19.16
2022-08-25T02:52:26.272Z,19.15
2022-08-25T02:53:26.169Z,19.12
2022-08-25T02:54:26.211Z,19.10
2022-08-25T02:55:26.181Z,19.10
2022-08-25T02:56:26.129Z,19.07
2022-08-25T02:57:26.167Z,19.05
2022-08-25T02:58:26.108Z,19.05
2022-08-25T02:59:26.138Z,19.00
2022-08-25T03:00:26.158Z,18.97
2022-08-25T03:01:29.085Z,18.96
2022-08-25T03:02:26.066Z,18.96
2022-08-25T03:03:26.086Z,18.96
2022-08-25T03:04:26.153Z,18.91
2022-08-25T03:05:26.055Z,18.90
2022-08-25T03:06:26.075Z,18.90
2022-08-25T03:07:26.009Z,18.87
2022-08-25T03:08:26.005Z,18.86
2022-08-25T03:09:25.965Z,18.82
2022-08-25T03:10:25.974Z,18.81
2022-08-25T03:11:26.030Z,18.81
2022-08-25T03:12:25.972Z,18.81
2022-08-25T03:13:25.904Z,18.78
2022-08-25T03:14:25.998Z,18.76
2022-08-25T03:15:25.886Z,18.75
2022-08-25T03:16:27.879Z,18.74
2022-08-25T03:17:25.913Z,18.74
2022-08-25T03:18:25.881Z,18.71
2022-08-25T03:19:25.873Z,18.71
2022-08-25T03:20:25.897Z,18.69
2022-08-25T03:21:25.872Z,18.68
2022-08-25T03:22:25.854Z,18.66
2022-08-25T03:23:25.812Z,18.65
2022-08-25T03:24:25.792Z,18.63
2022-08-25T03:25:25.791Z,18.63
2022-08-25T03:26:25.751Z,18.59
2022-08-25T03:27:25.772Z,18.59
2022-08-25T03:28:30.128Z,18.57
2022-08-25T03:29:25.740Z,18.56
2022-08-25T03:30:25.787Z,18.54
2022-08-25T03:31:25.747Z,18.53
2022-08-25T03:32:25.690Z,18.51
2022-08-25T03:33:25.670Z,18.51
2022-08-25T03:34:25.716Z,18.50
2022-08-25T03:35:25.651Z,18.50
2022-08-25T03:36:25.648Z,18.49
2022-08-25T03:37:25.704Z,18.49
2022-08-25T03:38:25.630Z,18.45
2022-08-25T03:39:25.658Z,18.44
2022-08-25T03:40:25.601Z,18.42
2022-08-25T03:41:28.071Z,18.39
2022-08-25T03:42:25.566Z,18.39
2022-08-25T03:43:25.593Z,18.38
2022-08-25T03:44:25.587Z,18.38
2022-08-25T03:45:25.578Z,18.35
2022-08-25T03:46:25.506Z,18.35
2022-08-25T03:47:25.576Z,18.32
2022-08-25T03:48:25.488Z,18.31
2022-08-25T03:49:25.496Z,18.31
2022-08-25T03:50:25.503Z,18.31
2022-08-25T03:51:25.469Z,18.29
2022-08-25T03:52:25.465Z,18.27
2022-08-25T03:53:25.406Z,18.26
2022-08-25T03:54:25.440Z,18.26
2022-08-25T03:55:25.463Z,18.26
2022-08-25T03:56:25.424Z,18.24
2022-08-25T03:57:25.395Z,18.24
2022-08-25T03:58:25.344Z,18.23
2022-08-25T03:59:25.395Z,18.21
2022-08-25T04:00:25.333Z,18.21
2022-08-25T04:01:25.461Z,18.21
2022-08-25T04:02:25.353Z,18.20
2022-08-25T04:03:25.407Z,18.20
2022-08-25T04:04:25.345Z,18.19
2022-08-25T04:05:26.795Z,18.17
2022-08-25T04:06:25.283Z,18.16
2022-08-25T04:07:25.343Z,18.14
2022-08-25T04:08:25.242Z,18.14
2022-08-25T04:09:25.281Z,18.14
2022-08-25T04:10:25.192Z,18.13
2022-08-25T04:11:25.231Z,18.11
2022-08-25T04:12:25.189Z,18.11
2022-08-25T04:13:25.175Z,18.10
2022-08-25T04:14:25.149Z,18.10
2022-08-25T04:15:28.504Z,18.10
2022-08-25T04:16:26.154Z,18.08
2022-08-25T04:17:25.191Z,18.11
2022-08-25T04:18:25.129Z,18.17
2022-08-25T04:19:25.129Z,18.20
2022-08-25T04:20:25.110Z,18.23
2022-08-25T04:21:25.072Z,18.29
2022-08-25T04:22:25.029Z,18.34
2022-08-25T04:23:25.058Z,18.38
2022-08-25T04:24:25.061Z,18.44
2022-08-25T04:25:25.030Z,18.49
2022-08-25T04:26:25.026Z,18.51
2022-08-25T04:27:25.053Z,18.56
2022-08-25T04:28:24.995Z,18.59
2022-08-25T04:29:24.988Z,18.61
2022-08-25T04:30:24.978Z,18.65
2022-08-25T04:31:25.049Z,18.68
2022-08-25T04:32:24.916Z,18.69
2022-08-25T04:33:24.896Z,18.71
2022-08-25T04:34:29.347Z,18.74
2022-08-25T04:35:25.882Z,18.76
2022-08-25T04:36:24.866Z,18.78
2022-08-25T04:37:24.865Z,18.78
2022-08-25T04:38:24.887Z,18.79
2022-08-25T04:39:24.953Z,18.79
2022-08-25T04:40:28.952Z,18.81
2022-08-25T04:41:24.803Z,18.79
2022-08-25T04:42:24.783Z,18.81
2022-08-25T04:43:24.814Z,18.82
2022-08-25T04:44:24.763Z,18.81
2022-08-25T04:45:24.811Z,18.82
2022-08-25T04:46:24.818Z,18.84
2022-08-25T04:47:24.793Z,18.84
2022-08-25T04:48:24.740Z,18.86
2022-08-25T04:49:24.724Z,18.87
2022-08-25T04:50:24.702Z,18.86
2022-08-25T04:51:24.698Z,18.89
2022-08-25T04:52:24.666Z,18.89
2022-08-25T04:53:24.662Z,18.89
2022-08-25T04:54:24.657Z,18.89
2022-08-25T04:55:24.630Z,18.89
2022-08-25T04:56:24.616Z,18.90
2022-08-25T04:57:24.601Z,18.90
2022-08-25T04:58:24.627Z,18.91
2022-08-25T04:59:24.591Z,18.90
2022-08-25T05:00:25.581Z,18.93
2022-08-25T05:01:24.658Z,18.93
2022-08-25T05:02:24.560Z,18.94
2022-08-25T05:03:24.539Z,18.93
2022-08-25T05:04:28.088Z,18.96
2022-08-25T05:05:24.549Z,18.97
2022-08-25T05:06:24.526Z,18.96
2022-08-25T05:07:24.479Z,18.96
2022-08-25T05:08:24.456Z,18.97
2022-08-25T05:09:25.098Z,19.00
2022-08-25T05:10:24.450Z,19.00
2022-08-25T05:11:24.427Z,19.00
2022-08-25T05:12:24.407Z,18.99
2022-08-25T05:13:24.426Z,19.00
2022-08-25T05:14:26.173Z,19.00
2022-08-25T05:15:24.367Z,18.99
2022-08-25T05:16:24.432Z,18.99
2022-08-25T05:17:24.346Z,19.00
2022-08-25T05:18:24.326Z,18.99
2022-08-25T05:19:24.603Z,18.96
2022-08-25T05:20:24.321Z,18.94
2022-08-25T05:21:24.325Z,18.93
2022-08-25T05:22:28.005Z,18.91
2022-08-25T05:23:24.285Z,18.91
2022-08-25T05:24:24.291Z,18.89
2022-08-25T05:25:24.265Z,18.87
2022-08-25T05:26:24.314Z,18.86
2022-08-25T05:27:24.265Z,18.86
2022-08-25T05:28:24.193Z,18.82
2022-08-25T05:29:24.234Z,18.82
2022-08-25T05:30:24.263Z,18.81
2022-08-25T05:31:24.330Z,18.79
2022-08-25T05:32:24.226Z,18.81
2022-08-25T05:33:24.193Z,18.81
2022-08-25T05:34:24.286Z,18.81
2022-08-25T05:35:24.174Z,18.78
2022-08-25T05:36:24.134Z,18.81
2022-08-25T05:37:24.092Z,18.81
2022-08-25T05:38:24.389Z,18.81
2022-08-25T05:39:26.974Z,18.81
2022-08-25T05:40:24.125Z,18.82
2022-08-25T05:41:24.071Z,18.84
2022-08-25T05:42:24.032Z,18.84
2022-08-25T05:43:24.225Z,18.87
2022-08-25T05:44:24.031Z,18.90
2022-08-25T05:45:24.017Z,18.91
2022-08-25T05:46:24.021Z,18.96
2022-08-25T05:47:23.960Z,18.96
2022-08-25T05:48:24.092Z,18.97
2022-08-25T05:49:23.999Z,19.02
2022-08-25T05:50:23.933Z,19.02
2022-08-25T05:51:23.967Z,19.07
2022-08-25T05:52:23.949Z,19.09
2022-08-25T05:53:23.948Z,19.10
2022-08-25T05:54:23.939Z,19.12
2022-08-25T05:55:23.906Z,19.16
2022-08-25T05:56:23.881Z,19.17
2022-08-25T05:57:23.879Z,19.20
2022-08-25T05:58:23.867Z,19.24
2022-08-25T05:59:23.827Z,19.25
2022-08-25T06:00:23.816Z,19.30
2022-08-25T06:01:23.913Z,19.32
2022-08-25T06:02:23.796Z,19.32
2022-08-25T06:03:23.835Z,19.35
2022-08-25T06:04:23.765Z,19.38
2022-08-25T06:05:23.767Z,19.42
2022-08-25T06:06:23.747Z,19.43
2022-08-25T06:07:23.784Z,19.46
2022-08-25T06:08:23.715Z,19.47
2022-08-25T06:09:23.723Z,19.49
2022-08-25T06:10:23.676Z,19.50
2022-08-25T06:11:23.733Z,19.55
2022-08-25T06:12:23.668Z,19.53
2022-08-25T06:13:28.874Z,19.57
2022-08-25T06:14:24.664Z,19.60
2022-08-25T06:15:23.656Z,19.61
2022-08-25T06:16:23.708Z,19.64
2022-08-25T06:17:23.623Z,19.68
2022-08-25T06:18:23.582Z,19.68
2022-08-25T06:19:23.830Z,19.71
2022-08-25T06:20:25.822Z,19.74
2022-08-25T06:21:23.555Z,19.75
2022-08-25T06:22:23.571Z,19.78
2022-08-25T06:23:23.611Z,19.79
2022-08-25T06:24:23.524Z,19.80
2022-08-25T06:25:23.531Z,19.83
2022-08-25T06:26:23.506Z,19.85
2022-08-25T06:27:23.496Z,19.86
2022-08-25T06:28:23.460Z,19.87
2022-08-25T06:29:23.474Z,19.89
2022-08-25T06:30:24.601Z,19.90
2022-08-25T06:31:24.481Z,19.92
2022-08-25T06:32:23.421Z,19.93
2022-08-25T06:33:23.439Z,19.95
2022-08-25T06:34:24.193Z,19.97
2022-08-25T06:35:23.369Z,19.98
2022-08-25T06:36:23.367Z,19.97
2022-08-25T06:37:25.292Z,20.00
2022-08-25T06:38:23.355Z,20.00
2022-08-25T06:39:23.308Z,20.01
2022-08-25T06:40:23.382Z,20.01
2022-08-25T06:41:23.327Z,20.04
2022-08-25T06:42:23.277Z,20.04
2022-08-25T06:43:23.306Z,20.05
2022-08-25T06:44:23.276Z,20.07
2022-08-25T06:45:23.267Z,20.05
2022-08-25T06:46:23.265Z,20.07
2022-08-25T06:47:24.302Z,20.05
2022-08-25T06:48:23.196Z,20.05
2022-08-25T06:49:23.196Z,20.07
2022-08-25T06:50:23.193Z,20.07
2022-08-25T06:51:23.281Z,20.07
2022-08-25T06:52:29.330Z,20.07
2022-08-25T06:53:24.155Z,20.10
2022-08-25T06:54:23.124Z,20.10
2022-08-25T06:55:23.104Z,20.10
2022-08-25T06:56:23.135Z,20.10
2022-08-25T06:57:23.185Z,20.11
2022-08-25T06:58:23.101Z,20.11
2022-08-25T06:59:23.079Z,20.11
2022-08-25T07:00:23.088Z,20.12
2022-08-25T07:01:26.020Z,20.12
2022-08-25T07:02:23.040Z,20.12
2022-08-25T07:04:23.052Z,20.15
2022-08-25T07:05:33.669Z,20.15
2022-08-25T07:06:24.001Z,20.16
2022-08-25T07:07:23.024Z,20.18
2022-08-25T07:08:22.942Z,20.19
2022-08-25T07:09:23.019Z,20.20
2022-08-25T07:10:22.962Z,20.22
2022-08-25T07:11:22.962Z,20.25
2022-08-25T07:12:22.922Z,20.26
2022-08-25T07:13:22.941Z,20.27
2022-08-25T07:14:22.879Z,20.29
2022-08-25T07:15:22.881Z,20.30
2022-08-25T07:16:22.957Z,20.34
2022-08-25T07:17:23.820Z,20.34
2022-08-25T07:18:22.867Z,20.35
2022-08-25T07:19:23.006Z,20.35
2022-08-25T07:21:25.027Z,20.37
2022-08-25T07:22:23.809Z,20.40
2022-08-25T07:23:22.769Z,20.42
2022-08-25T07:24:22.875Z,20.44
2022-08-25T07:25:22.768Z,20.49
2022-08-25T07:26:39.004Z,20.53
2022-08-25T07:27:23.708Z,20.56
2022-08-25T07:28:22.802Z,20.60
2022-08-25T07:29:32.204Z,20.63
2022-08-25T07:30:23.791Z,20.67
2022-08-25T07:31:22.818Z,20.72
2022-08-25T07:32:23.689Z,20.76
2022-08-25T07:33:22.620Z,20.79
2022-08-25T07:34:22.646Z,20.82
2022-08-25T07:35:24.197Z,20.86
2022-08-25T07:36:22.659Z,20.88
2022-08-25T07:38:23.611Z,20.93
2022-08-25T07:39:22.566Z,20.94
2022-08-25T07:40:22.756Z,20.96
2022-08-25T07:41:22.543Z,21.00
2022-08-25T07:42:22.535Z,21.00
2022-08-25T07:43:22.566Z,21.03
2022-08-25T07:44:22.566Z,21.08
2022-08-25T07:45:22.483Z,21.08
2022-08-25T07:46:22.610Z,21.13
2022-08-25T07:47:23.035Z,21.13
2022-08-25T07:48:22.473Z,21.19
2022-08-25T07:49:23.208Z,21.19
2022-08-25T07:50:22.516Z,21.21
2022-08-25T07:51:22.464Z,21.22
2022-08-25T07:52:22.447Z,21.25
2022-08-25T07:53:22.363Z,21.28
2022-08-25T07:54:22.408Z,21.30
2022-08-25T07:55:23.421Z,21.33
2022-08-25T07:56:22.384Z,21.36
2022-08-25T07:57:22.405Z,21.40
2022-08-25T07:58:22.335Z,21.43
2022-08-25T07:59:22.324Z,21.46
2022-08-25T08:00:22.350Z,21.48
2022-08-25T08:01:22.384Z,21.49
2022-08-25T08:02:22.306Z,21.51
2022-08-25T08:03:35.519Z,21.52
2022-08-25T08:04:23.344Z,21.55
2022-08-25T08:05:23.797Z,21.55
2022-08-25T08:06:22.267Z,21.56
2022-08-25T08:07:22.923Z,21.58
2022-08-25T08:08:22.219Z,21.59
2022-08-25T08:09:22.228Z,21.62
2022-08-25T08:11:23.229Z,21.67
2022-08-25T08:12:22.228Z,21.68
2022-08-25T08:13:22.151Z,21.71
2022-08-25T08:14:22.192Z,21.74
2022-08-25T08:15:22.107Z,21.77
2022-08-25T08:16:22.367Z,21.78
2022-08-25T08:17:22.105Z,21.83
2022-08-25T08:18:22.152Z,21.89
2022-08-25T08:19:23.149Z,21.92
2022-08-25T08:20:23.576Z,21.97
2022-08-25T08:21:22.045Z,22.02
2022-08-25T08:22:22.026Z,22.07
2022-08-25T08:23:22.043Z,22.11
2022-08-25T08:24:40.818Z,22.15
2022-08-25T08:25:27.230Z,22.18
2022-08-25T08:26:22.467Z,22.24
2022-08-25T08:27:22.960Z,22.27
2022-08-25T08:28:22.072Z,22.31
2022-08-25T08:29:21.942Z,22.36
2022-08-25T08:30:22.114Z,22.39
2022-08-25T08:31:21.977Z,22.45
2022-08-25T08:32:25.179Z,22.46
2022-08-25T08:33:22.900Z,22.51
2022-08-25T08:34:25.146Z,22.52
2022-08-25T08:35:22.066Z,22.54
2022-08-25T08:36:22.202Z,22.60
2022-08-25T08:37:22.868Z,22.63
2022-08-25T08:38:22.133Z,22.69
2022-08-25T08:39:22.866Z,22.70
2022-08-25T08:40:21.911Z,22.73
2022-08-25T08:41:23.079Z,22.78
2022-08-25T08:42:21.812Z,22.84
2022-08-25T08:43:21.821Z,22.88
2022-08-25T08:44:21.788Z,22.96
2022-08-25T08:45:21.741Z,23.01
2022-08-25T08:46:21.841Z,23.03
2022-08-25T08:47:22.491Z,23.09
2022-08-25T08:48:21.712Z,23.12
2022-08-25T08:49:21.690Z,23.15
2022-08-25T08:50:24.885Z,23.15
2022-08-25T08:51:23.188Z,23.18
2022-08-25T08:52:21.709Z,23.22
2022-08-25T08:53:21.712Z,23.24
2022-08-25T08:54:23.129Z,23.26
2022-08-25T08:55:21.613Z,23.32
2022-08-25T08:56:21.599Z,23.38
2022-08-25T08:57:21.578Z,23.41
2022-08-25T08:58:26.343Z,23.45
2022-08-25T08:59:29.934Z,23.53
2022-08-25T09:00:22.562Z,23.56
2022-08-25T09:01:21.586Z,23.60
2022-08-25T09:02:39.599Z,23.64
2022-08-25T09:03:22.562Z,23.66
2022-08-25T09:04:21.508Z,23.70
2022-08-25T09:05:21.527Z,23.71
2022-08-25T09:06:21.500Z,23.74
2022-08-25T09:07:21.456Z,23.75
2022-08-25T09:08:21.428Z,23.77
2022-08-25T09:09:21.494Z,23.78
2022-08-25T09:10:21.420Z,23.79
2022-08-25T09:11:21.386Z,23.82
2022-08-25T09:12:21.396Z,23.85
2022-08-25T09:13:21.453Z,23.92
2022-08-25T09:14:21.365Z,23.96
2022-08-25T09:15:21.439Z,23.96
2022-08-25T09:16:31.834Z,23.99
2022-08-25T09:17:22.478Z,24.04
2022-08-25T09:18:21.334Z,24.09
2022-08-25T09:19:23.718Z,24.12
2022-08-25T09:20:21.438Z,24.17
2022-08-25T09:21:21.333Z,24.19
2022-08-25T09:22:34.884Z,24.22
2022-08-25T09:23:22.302Z,24.24
2022-08-25T09:24:21.323Z,24.29
2022-08-25T09:25:29.389Z,24.32
2022-08-25T09:26:22.392Z,24.39
2022-08-25T09:27:21.266Z,24.42
2022-08-25T09:28:21.233Z,24.48
2022-08-25T09:29:21.209Z,24.49
2022-08-25T09:30:21.294Z,24.52
2022-08-25T09:31:21.344Z,24.55
2022-08-25T09:32:24.085Z,24.55
2022-08-25T09:33:21.485Z,24.56
2022-08-25T09:34:21.186Z,24.59
2022-08-25T09:35:21.102Z,24.61
2022-08-25T09:36:21.134Z,24.61
2022-08-25T09:37:21.062Z,24.63
2022-08-25T09:38:21.073Z,24.66
2022-08-25T09:39:21.116Z,24.69
2022-08-25T09:40:21.153Z,24.74
2022-08-25T09:41:21.081Z,24.77
2022-08-25T09:42:23.933Z,24.78
2022-08-25T09:43:21.079Z,24.83
2022-08-25T09:44:20.993Z,24.83
2022-08-25T09:45:21.042Z,24.87
2022-08-25T09:46:21.211Z,24.89
2022-08-25T09:47:20.962Z,24.93
2022-08-25T09:48:20.969Z,24.94
2022-08-25T09:49:21.281Z,24.92
2022-08-25T09:50:20.970Z,24.96
2022-08-25T09:51:20.923Z,25.00
2022-08-25T09:52:21.019Z,25.04
2022-08-25T09:53:21.702Z,25.08
2022-08-25T09:54:20.869Z,25.14
2022-08-25T09:55:20.949Z,25.17
2022-08-25T09:56:20.867Z,25.20
2022-08-25T09:57:21.030Z,25.23
2022-08-25T09:58:22.223Z,25.27
2022-08-25T09:59:34.547Z,25.30
2022-08-25T10:00:21.818Z,25.37
2022-08-25T10:01:22.438Z,25.41
2022-08-25T10:02:20.779Z,25.47
2022-08-25T10:03:22.486Z,25.51
2022-08-25T10:04:21.445Z,25.56
2022-08-25T10:05:20.833Z,25.59
2022-08-25T10:06:21.017Z,25.57
2022-08-25T10:07:20.706Z,25.60
2022-08-25T10:08:24.694Z,25.62
2022-08-25T10:09:20.837Z,25.64
2022-08-25T10:10:21.116Z,25.62
2022-08-25T10:11:20.745Z,25.62
2022-08-25T10:12:21.543Z,25.59
2022-08-25T10:13:22.787Z,25.57
2022-08-25T10:14:20.616Z,25.54
2022-08-25T10:15:29.905Z,25.51
2022-08-25T10:16:24.924Z,25.49
2022-08-25T10:17:20.575Z,25.47
2022-08-25T10:18:20.624Z,25.49
2022-08-25T10:19:20.633Z,25.47
2022-08-25T10:20:20.613Z,25.48
2022-08-25T10:21:20.576Z,25.48
2022-08-25T10:22:20.702Z,25.52
2022-08-25T10:23:20.708Z,25.57
2022-08-25T10:24:20.564Z,25.64
2022-08-25T10:25:20.473Z,25.67
2022-08-25T10:26:20.543Z,25.74
2022-08-25T10:27:20.500Z,25.79
2022-08-25T10:28:20.562Z,25.85
2022-08-25T10:29:24.655Z,25.91
2022-08-25T10:30:20.812Z,25.97
2022-08-25T10:31:20.447Z,26.01
2022-08-25T10:32:20.721Z,26.00
2022-08-25T10:33:20.451Z,26.03
2022-08-25T10:34:20.430Z,26.00
2022-08-25T10:35:20.371Z,25.99
2022-08-25T10:36:21.352Z,26.01
2022-08-25T10:37:20.361Z,26.00
2022-08-25T10:38:21.651Z,26.04
2022-08-25T10:39:34.204Z,26.09
2022-08-25T10:40:21.491Z,26.12
2022-08-25T10:41:20.271Z,26.16
2022-08-25T10:42:20.340Z,26.22
2022-08-25T10:43:23.657Z,26.20
2022-08-25T10:44:20.344Z,26.24
2022-08-25T10:45:21.916Z,26.26
2022-08-25T10:46:20.317Z,26.31
2022-08-25T10:47:20.485Z,26.37
2022-08-25T10:48:20.371Z,26.35
2022-08-25T10:49:20.415Z,26.41
2022-08-25T10:50:20.292Z,26.47
2022-08-25T10:51:23.689Z,26.49
2022-08-25T10:52:21.182Z,26.56
2022-08-25T10:53:20.227Z,26.61
2022-08-25T10:54:20.141Z,26.68
2022-08-25T10:55:20.137Z,26.74
2022-08-25T10:56:20.172Z,26.79
2022-08-25T10:57:20.120Z,26.86
2022-08-25T10:58:20.128Z,26.90
2022-08-25T10:59:20.144Z,26.89
2022-08-25T11:00:20.080Z,26.93
2022-08-25T11:01:20.085Z,26.97
2022-08-25T11:02:21.040Z,27.01
2022-08-25T11:03:20.056Z,27.05
2022-08-25T11:04:19.993Z,27.08
2022-08-25T11:05:24.394Z,27.11
2022-08-25T11:06:19.960Z,27.12
2022-08-25T11:07:19.999Z,27.13
2022-08-25T11:08:20.012Z,27.15
2022-08-25T11:09:19.973Z,27.13
2022-08-25T11:10:19.937Z,27.15
2022-08-25T11:11:19.938Z,27.18
2022-08-25T11:12:19.969Z,27.19
2022-08-25T11:13:19.890Z,27.23
2022-08-25T11:14:19.848Z,27.26
2022-08-25T11:15:19.868Z,27.26
2022-08-25T11:16:19.973Z,27.27
2022-08-25T11:17:19.933Z,27.27
2022-08-25T11:18:19.857Z,27.26
2022-08-25T11:19:19.977Z,27.26
2022-08-25T11:20:26.875Z,27.24
2022-08-25T11:21:22.125Z,27.30
2022-08-25T11:22:19.859Z,27.33
2022-08-25T11:23:19.779Z,27.34
2022-08-25T11:24:19.744Z,27.37
2022-08-25T11:25:19.749Z,27.41
2022-08-25T11:26:19.706Z,27.43
2022-08-25T11:27:19.783Z,27.45
2022-08-25T11:28:19.705Z,27.49
2022-08-25T11:29:19.665Z,27.52
2022-08-25T11:30:19.692Z,27.55
2022-08-25T11:31:19.655Z,27.57
2022-08-25T11:32:19.669Z,27.53
2022-08-25T11:33:19.731Z,27.55
2022-08-25T11:34:19.742Z,27.61
2022-08-25T11:35:19.624Z,27.64
2022-08-25T11:36:19.614Z,27.66
2022-08-25T11:37:19.647Z,27.68
2022-08-25T11:38:19.566Z,27.69
2022-08-25T11:39:19.593Z,27.74
2022-08-25T11:40:19.642Z,27.75
2022-08-25T11:41:19.552Z,27.75
2022-08-25T11:42:19.543Z,27.76
2022-08-25T11:43:19.532Z,27.80
2022-08-25T11:44:19.512Z,27.83
2022-08-25T11:45:19.533Z,27.81
2022-08-25T11:46:19.565Z,27.79
2022-08-25T11:47:21.193Z,27.76
2022-08-25T11:48:19.465Z,27.76
2022-08-25T11:49:19.971Z,27.75
2022-08-25T11:50:19.552Z,27.75
2022-08-25T11:51:19.421Z,27.71
2022-08-25T11:52:19.551Z,27.68
2022-08-25T11:53:19.381Z,27.68
2022-08-25T11:54:20.450Z,27.68
2022-08-25T11:55:23.096Z,27.68
2022-08-25T11:56:19.360Z,27.68
2022-08-25T11:57:19.438Z,27.71
2022-08-25T11:58:19.407Z,27.75
2022-08-25T11:59:19.377Z,27.79
2022-08-25T12:00:19.308Z,27.80
2022-08-25T12:01:19.277Z,27.81
2022-08-25T12:02:19.295Z,27.87
2022-08-25T12:03:19.278Z,27.89
2022-08-25T12:04:19.427Z,27.90
2022-08-25T12:05:19.389Z,27.91
2022-08-25T12:06:19.218Z,27.96
2022-08-25T12:07:19.214Z,28.03
2022-08-25T12:08:19.207Z,28.11
2022-08-25T12:09:19.201Z,28.18
2022-08-25T12:10:19.205Z,28.24
2022-08-25T12:11:19.420Z,28.33
2022-08-25T12:12:19.160Z,28.38
2022-08-25T12:13:19.198Z,28.46
2022-08-25T12:14:19.215Z,28.53
2022-08-25T12:15:19.147Z,28.58
2022-08-25T12:16:19.206Z,28.67
2022-08-25T12:17:19.205Z,28.75
2022-08-25T12:18:19.117Z,28.82
2022-08-25T12:19:19.069Z,28.90
2022-08-25T12:20:19.053Z,29.01
2022-08-25T12:21:19.056Z,29.03
2022-08-25T12:22:20.098Z,29.03
2022-08-25T12:23:19.068Z,29.02
2022-08-25T12:24:19.010Z,29.01
2022-08-25T12:25:19.167Z,29.06
2022-08-25T12:26:18.976Z,29.15
2022-08-25T12:27:19.121Z,29.23
2022-08-25T12:28:19.478Z,29.30
2022-08-25T12:29:18.944Z,29.36
2022-08-25T12:30:21.023Z,29.45
2022-08-25T12:31:19.060Z,29.52
2022-08-25T12:32:18.894Z,29.61
2022-08-25T12:33:18.941Z,29.66
2022-08-25T12:34:18.934Z,29.65
2022-08-25T12:35:19.902Z,29.65
2022-08-25T12:36:19.032Z,29.77
2022-08-25T12:37:18.913Z,29.89
2022-08-25T12:38:18.844Z,30.02
2022-08-25T12:39:19.067Z,30.07
2022-08-25T12:40:18.882Z,30.18
2022-08-25T12:41:18.891Z,30.29
2022-08-25T12:42:19.916Z,30.39
2022-08-25T12:43:19.715Z,30.49
2022-08-25T12:44:18.812Z,30.59
2022-08-25T12:45:18.853Z,30.64
2022-08-25T12:46:18.876Z,30.62
2022-08-25T12:47:18.886Z,30.66
2022-08-25T12:48:18.835Z,30.79
2022-08-25T12:49:18.731Z,30.84
2022-08-25T12:50:18.764Z,30.91
2022-08-25T12:51:18.833Z,31.00
2022-08-25T12:52:18.662Z,31.08
2022-08-25T12:53:18.700Z,31.18
2022-08-25T12:54:18.999Z,31.28
2022-08-25T12:55:18.633Z,31.37
2022-08-25T12:56:18.630Z,31.45